sensor_id;sensor_type;location;lat;lon;timestamp;P1;durP1;ratioP1;P2;durP2;ratioP2
6626;SDS011;3349;49.830;8.748;2023-03-23T00:02:13;2.33;;;1.58;;
6626;SDS011;3349;49.830;8.748;2023-03-23T00:04:39;2.70;;;1.52;;
6626;SDS011;3349;49.830;8.748;2023-03-23T00:07:07;2.28;;;1.80;;
6626;SDS011;3349;49.830;8.748;2023-03-23T00:09:35;2.53;;;1.55;;
6626;SDS011;3349;49.830;8.748;2023-03-23T00:12:06;2.50;;;1.75;;
6626;SDS011;3349;49.830;8.748;2023-03-23T00:14:33;2.80;;;1.83;;
6626;SDS011;3349;49.830;8.748;2023-03-23T00:17:06;2.15;;;1.92;;
6626;SDS011;3349;49.830;8.748;2023-03-23T00:19:34;2.58;;;1.40;;
6626;SDS011;3349;49.830;8.748;2023-03-23T00:22:10;2.78;;;1.65;;
6626;SDS011;3349;49.830;8.748;2023-03-23T00:24:38;4.72;;;1.85;;
6626;SDS011;3349;49.830;8.748;2023-03-23T00:27:05;2.13;;;1.58;;
6626;SDS011;3349;49.830;8.748;2023-03-23T00:29:31;2.97;;;1.80;;
6626;SDS011;3349;49.830;8.748;2023-03-23T00:31:58;1.92;;;1.70;;
6626;SDS011;3349;49.830;8.748;2023-03-23T00:34:24;3.78;;;1.60;;
6626;SDS011;3349;49.830;8.748;2023-03-23T00:36:59;2.55;;;1.60;;
6626;SDS011;3349;49.830;8.748;2023-03-23T00:39:27;2.20;;;1.45;;
6626;SDS011;3349;49.830;8.748;2023-03-23T00:41:55;3.13;;;1.40;;
6626;SDS011;3349;49.830;8.748;2023-03-23T00:44:25;1.65;;;1.40;;
6626;SDS011;3349;49.830;8.748;2023-03-23T00:46:53;1.70;;;1.40;;
6626;SDS011;3349;49.830;8.748;2023-03-23T00:49:21;3.67;;;1.40;;
6626;SDS011;3349;49.830;8.748;2023-03-23T00:51:50;2.72;;;1.45;;
6626;SDS011;3349;49.830;8.748;2023-03-23T00:54:17;2.85;;;1.42;;
6626;SDS011;3349;49.830;8.748;2023-03-23T00:56:43;3.38;;;1.73;;
6626;SDS011;3349;49.830;8.748;2023-03-23T00:59:11;2.03;;;1.50;;
6626;SDS011;3349;49.830;8.748;2023-03-23T01:01:38;3.05;;;1.70;;
6626;SDS011;3349;49.830;8.748;2023-03-23T01:04:06;4.38;;;1.58;;
6626;SDS011;3349;49.830;8.748;2023-03-23T01:06:37;2.45;;;1.73;;
6626;SDS011;3349;49.830;8.748;2023-03-23T01:09:06;1.63;;;1.50;;
6626;SDS011;3349;49.830;8.748;2023-03-23T01:11:33;1.90;;;1.50;;
6626;SDS011;3349;49.830;8.748;2023-03-23T01:14:01;2.47;;;1.48;;
6626;SDS011;3349;49.830;8.748;2023-03-23T01:16:29;2.97;;;1.70;;
6626;SDS011;3349;49.830;8.748;2023-03-23T01:18:56;2.35;;;1.40;;
6626;SDS011;3349;49.830;8.748;2023-03-23T01:21:22;2.97;;;1.42;;
6626;SDS011;3349;49.830;8.748;2023-03-23T01:23:50;2.15;;;1.60;;
6626;SDS011;3349;49.830;8.748;2023-03-23T01:26:18;2.30;;;1.65;;
6626;SDS011;3349;49.830;8.748;2023-03-23T01:28:46;2.75;;;1.50;;
6626;SDS011;3349;49.830;8.748;2023-03-23T01:31:14;2.72;;;1.58;;
6626;SDS011;3349;49.830;8.748;2023-03-23T01:33:43;2.75;;;1.77;;
6626;SDS011;3349;49.830;8.748;2023-03-23T01:36:12;3.30;;;1.40;;
6626;SDS011;3349;49.830;8.748;2023-03-23T01:38:41;3.53;;;1.40;;
6626;SDS011;3349;49.830;8.748;2023-03-23T01:41:08;2.50;;;1.90;;
6626;SDS011;3349;49.830;8.748;2023-03-23T01:43:35;1.88;;;1.42;;
6626;SDS011;3349;49.830;8.748;2023-03-23T01:46:02;1.60;;;1.40;;
6626;SDS011;3349;49.830;8.748;2023-03-23T01:48:30;3.05;;;1.80;;
6626;SDS011;3349;49.830;8.748;2023-03-23T01:51:06;1.25;;;1.15;;
6626;SDS011;3349;49.830;8.748;2023-03-23T01:53:36;2.50;;;1.48;;
6626;SDS011;3349;49.830;8.748;2023-03-23T01:56:06;1.85;;;1.33;;
6626;SDS011;3349;49.830;8.748;2023-03-23T01:58:37;2.13;;;1.50;;
6626;SDS011;3349;49.830;8.748;2023-03-23T02:01:05;2.72;;;1.27;;
6626;SDS011;3349;49.830;8.748;2023-03-23T02:03:36;1.90;;;1.50;;
6626;SDS011;3349;49.830;8.748;2023-03-23T02:06:07;1.88;;;1.40;;
6626;SDS011;3349;49.830;8.748;2023-03-23T02:11:56;2.35;;;2.13;;
6626;SDS011;3349;49.830;8.748;2023-03-23T02:14:23;2.08;;;1.88;;
6626;SDS011;3349;49.830;8.748;2023-03-23T02:16:54;2.42;;;1.73;;
6626;SDS011;3349;49.830;8.748;2023-03-23T02:19:30;3.58;;;1.73;;
6626;SDS011;3349;49.830;8.748;2023-03-23T02:25:23;3.25;;;1.95;;
6626;SDS011;3349;49.830;8.748;2023-03-23T02:28:16;1.85;;;1.52;;
6626;SDS011;3349;49.830;8.748;2023-03-23T02:31:01;2.47;;;2.20;;
6626;SDS011;3349;49.830;8.748;2023-03-23T02:33:41;2.35;;;1.88;;
6626;SDS011;3349;49.830;8.748;2023-03-23T02:36:14;2.92;;;1.60;;
6626;SDS011;3349;49.830;8.748;2023-03-23T02:38:50;1.70;;;1.40;;
6626;SDS011;3349;49.830;8.748;2023-03-23T02:41:22;3.05;;;1.63;;
6626;SDS011;3349;49.830;8.748;2023-03-23T02:43:51;2.10;;;1.60;;
6626;SDS011;3349;49.830;8.748;2023-03-23T02:46:19;2.40;;;1.75;;
6626;SDS011;3349;49.830;8.748;2023-03-23T02:48:49;1.80;;;1.67;;
6626;SDS011;3349;49.830;8.748;2023-03-23T02:51:19;2.30;;;1.60;;
6626;SDS011;3349;49.830;8.748;2023-03-23T02:53:47;1.83;;;1.60;;
6626;SDS011;3349;49.830;8.748;2023-03-23T02:56:17;2.00;;;1.50;;
6626;SDS011;3349;49.830;8.748;2023-03-23T02:58:46;2.20;;;1.70;;
6626;SDS011;3349;49.830;8.748;2023-03-23T03:01:14;2.53;;;1.67;;
6626;SDS011;3349;49.830;8.748;2023-03-23T03:04:03;2.75;;;1.75;;
6626;SDS011;3349;49.830;8.748;2023-03-23T03:06:34;1.75;;;1.63;;
6626;SDS011;3349;49.830;8.748;2023-03-23T03:09:07;2.28;;;1.40;;
6626;SDS011;3349;49.830;8.748;2023-03-23T03:11:39;2.58;;;1.60;;
6626;SDS011;3349;49.830;8.748;2023-03-23T03:14:13;2.40;;;1.60;;
6626;SDS011;3349;49.830;8.748;2023-03-23T03:16:45;2.42;;;1.70;;
6626;SDS011;3349;49.830;8.748;2023-03-23T03:19:20;1.75;;;1.40;;
6626;SDS011;3349;49.830;8.748;2023-03-23T03:21:51;2.20;;;1.50;;
6626;SDS011;3349;49.830;8.748;2023-03-23T03:24:21;2.25;;;1.55;;
6626;SDS011;3349;49.830;8.748;2023-03-23T03:26:50;3.30;;;1.70;;
6626;SDS011;3349;49.830;8.748;2023-03-23T03:29:23;2.55;;;1.70;;
6626;SDS011;3349;49.830;8.748;2023-03-23T03:31:54;2.00;;;1.60;;
6626;SDS011;3349;49.830;8.748;2023-03-23T03:34:25;1.80;;;1.50;;
6626;SDS011;3349;49.830;8.748;2023-03-23T03:36:53;2.00;;;1.40;;
6626;SDS011;3349;49.830;8.748;2023-03-23T03:39:23;2.15;;;1.50;;
6626;SDS011;3349;49.830;8.748;2023-03-23T03:41:50;2.55;;;1.73;;
6626;SDS011;3349;49.830;8.748;2023-03-23T03:44:17;1.90;;;1.52;;
6626;SDS011;3349;49.830;8.748;2023-03-23T03:46:43;1.73;;;1.55;;
6626;SDS011;3349;49.830;8.748;2023-03-23T03:49:10;2.60;;;1.58;;
6626;SDS011;3349;49.830;8.748;2023-03-23T03:51:39;2.88;;;1.70;;
6626;SDS011;3349;49.830;8.748;2023-03-23T03:54:06;2.97;;;1.52;;
6626;SDS011;3349;49.830;8.748;2023-03-23T03:56:33;2.15;;;1.70;;
6626;SDS011;3349;49.830;8.748;2023-03-23T03:59:00;2.08;;;1.40;;
6626;SDS011;3349;49.830;8.748;2023-03-23T04:01:27;1.92;;;1.67;;
6626;SDS011;3349;49.830;8.748;2023-03-23T04:03:54;2.67;;;1.63;;
6626;SDS011;3349;49.830;8.748;2023-03-23T04:06:21;2.53;;;1.75;;
6626;SDS011;3349;49.830;8.748;2023-03-23T04:08:50;2.83;;;1.98;;
6626;SDS011;3349;49.830;8.748;2023-03-23T04:11:16;2.30;;;1.70;;
6626;SDS011;3349;49.830;8.748;2023-03-23T04:13:43;1.67;;;1.40;;
6626;SDS011;3349;49.830;8.748;2023-03-23T04:16:10;1.90;;;1.60;;
6626;SDS011;3349;49.830;8.748;2023-03-23T04:18:36;2.60;;;2.10;;
6626;SDS011;3349;49.830;8.748;2023-03-23T04:21:04;2.75;;;1.83;;
6626;SDS011;3349;49.830;8.748;2023-03-23T04:23:33;1.70;;;1.30;;
6626;SDS011;3349;49.830;8.748;2023-03-23T04:26:02;2.40;;;1.65;;
6626;SDS011;3349;49.830;8.748;2023-03-23T04:28:29;2.38;;;1.63;;
6626;SDS011;3349;49.830;8.748;2023-03-23T04:30:58;5.60;;;1.77;;
6626;SDS011;3349;49.830;8.748;2023-03-23T04:33:28;1.70;;;1.60;;
6626;SDS011;3349;49.830;8.748;2023-03-23T04:35:56;2.42;;;1.65;;
6626;SDS011;3349;49.830;8.748;2023-03-23T04:38:27;1.80;;;1.48;;
6626;SDS011;3349;49.830;8.748;2023-03-23T04:40:57;3.50;;;1.88;;
6626;SDS011;3349;49.830;8.748;2023-03-23T04:43:27;1.63;;;1.40;;
6626;SDS011;3349;49.830;8.748;2023-03-23T04:45:54;2.00;;;1.60;;
6626;SDS011;3349;49.830;8.748;2023-03-23T04:48:22;2.97;;;1.90;;
6626;SDS011;3349;49.830;8.748;2023-03-23T04:50:49;3.08;;;1.55;;
6626;SDS011;3349;49.830;8.748;2023-03-23T04:53:17;3.75;;;1.80;;
6626;SDS011;3349;49.830;8.748;2023-03-23T04:55:44;2.17;;;1.73;;
6626;SDS011;3349;49.830;8.748;2023-03-23T04:58:12;4.72;;;1.50;;
6626;SDS011;3349;49.830;8.748;2023-03-23T05:00:40;2.63;;;1.80;;
6626;SDS011;3349;49.830;8.748;2023-03-23T05:03:14;3.28;;;1.80;;
6626;SDS011;3349;49.830;8.748;2023-03-23T05:05:41;2.67;;;1.75;;
6626;SDS011;3349;49.830;8.748;2023-03-23T05:08:12;2.70;;;1.80;;
6626;SDS011;3349;49.830;8.748;2023-03-23T05:10:39;2.55;;;1.80;;
6626;SDS011;3349;49.830;8.748;2023-03-23T05:13:06;2.70;;;1.65;;
6626;SDS011;3349;49.830;8.748;2023-03-23T05:15:32;3.28;;;2.00;;
6626;SDS011;3349;49.830;8.748;2023-03-23T05:18:01;2.70;;;2.15;;
6626;SDS011;3349;49.830;8.748;2023-03-23T05:20:28;3.83;;;2.03;;
6626;SDS011;3349;49.830;8.748;2023-03-23T05:22:55;2.10;;;1.90;;
6626;SDS011;3349;49.830;8.748;2023-03-23T05:25:22;2.63;;;1.80;;
6626;SDS011;3349;49.830;8.748;2023-03-23T05:27:49;2.10;;;1.90;;
6626;SDS011;3349;49.830;8.748;2023-03-23T05:30:17;2.33;;;1.70;;
6626;SDS011;3349;49.830;8.748;2023-03-23T05:32:45;2.88;;;1.95;;
6626;SDS011;3349;49.830;8.748;2023-03-23T05:35:17;2.22;;;1.40;;
6626;SDS011;3349;49.830;8.748;2023-03-23T05:37:45;3.33;;;1.70;;
6626;SDS011;3349;49.830;8.748;2023-03-23T05:40:12;2.92;;;1.65;;
6626;SDS011;3349;49.830;8.748;2023-03-23T05:42:39;2.42;;;1.80;;
6626;SDS011;3349;49.830;8.748;2023-03-23T05:45:07;2.20;;;1.90;;
6626;SDS011;3349;49.830;8.748;2023-03-23T05:47:37;1.95;;;1.70;;
6626;SDS011;3349;49.830;8.748;2023-03-23T05:50:05;2.28;;;1.77;;
6626;SDS011;3349;49.830;8.748;2023-03-23T05:52:35;2.92;;;1.77;;
6626;SDS011;3349;49.830;8.748;2023-03-23T05:55:02;1.80;;;1.70;;
6626;SDS011;3349;49.830;8.748;2023-03-23T05:57:30;3.22;;;2.13;;
6626;SDS011;3349;49.830;8.748;2023-03-23T05:59:57;5.57;;;1.90;;
6626;SDS011;3349;49.830;8.748;2023-03-23T06:02:24;2.65;;;1.88;;
6626;SDS011;3349;49.830;8.748;2023-03-23T06:04:54;3.08;;;1.90;;
6626;SDS011;3349;49.830;8.748;2023-03-23T06:07:22;2.70;;;1.80;;
6626;SDS011;3349;49.830;8.748;2023-03-23T06:09:50;2.50;;;1.80;;
6626;SDS011;3349;49.830;8.748;2023-03-23T06:12:17;5.63;;;2.00;;
6626;SDS011;3349;49.830;8.748;2023-03-23T06:14:45;3.42;;;2.00;;
6626;SDS011;3349;49.830;8.748;2023-03-23T06:17:13;4.13;;;1.67;;
6626;SDS011;3349;49.830;8.748;2023-03-23T06:19:40;3.33;;;2.03;;
6626;SDS011;3349;49.830;8.748;2023-03-23T06:22:07;2.20;;;2.00;;
6626;SDS011;3349;49.830;8.748;2023-03-23T06:24:34;1.90;;;1.70;;
6626;SDS011;3349;49.830;8.748;2023-03-23T06:27:02;2.35;;;1.88;;
6626;SDS011;3349;49.830;8.748;2023-03-23T06:29:29;2.90;;;1.85;;
6626;SDS011;3349;49.830;8.748;2023-03-23T06:31:56;2.80;;;2.10;;
6626;SDS011;3349;49.830;8.748;2023-03-23T06:34:27;2.95;;;2.15;;
6626;SDS011;3349;49.830;8.748;2023-03-23T06:36:54;6.22;;;2.03;;
6626;SDS011;3349;49.830;8.748;2023-03-23T06:39:21;3.30;;;2.00;;
6626;SDS011;3349;49.830;8.748;2023-03-23T06:41:48;3.03;;;1.95;;
6626;SDS011;3349;49.830;8.748;2023-03-23T06:44:17;4.28;;;2.53;;
6626;SDS011;3349;49.830;8.748;2023-03-23T06:46:44;2.60;;;2.20;;
6626;SDS011;3349;49.830;8.748;2023-03-23T06:49:11;2.20;;;2.00;;
6626;SDS011;3349;49.830;8.748;2023-03-23T06:51:37;2.00;;;1.80;;
6626;SDS011;3349;49.830;8.748;2023-03-23T06:54:04;3.05;;;2.03;;
6626;SDS011;3349;49.830;8.748;2023-03-23T06:56:31;3.78;;;1.73;;
6626;SDS011;3349;49.830;8.748;2023-03-23T06:58:57;2.63;;;2.08;;
6626;SDS011;3349;49.830;8.748;2023-03-23T07:01:26;2.58;;;1.85;;
6626;SDS011;3349;49.830;8.748;2023-03-23T07:03:53;3.25;;;2.10;;
6626;SDS011;3349;49.830;8.748;2023-03-23T07:06:20;4.22;;;2.28;;
6626;SDS011;3349;49.830;8.748;2023-03-23T07:08:47;2.42;;;1.92;;
6626;SDS011;3349;49.830;8.748;2023-03-23T07:11:14;2.13;;;1.90;;
6626;SDS011;3349;49.830;8.748;2023-03-23T07:13:41;2.63;;;2.10;;
6626;SDS011;3349;49.830;8.748;2023-03-23T07:16:08;5.60;;;2.05;;
6626;SDS011;3349;49.830;8.748;2023-03-23T07:18:37;2.30;;;2.10;;
6626;SDS011;3349;49.830;8.748;2023-03-23T07:21:04;2.47;;;2.15;;
6626;SDS011;3349;49.830;8.748;2023-03-23T07:23:31;3.70;;;2.00;;
6626;SDS011;3349;49.830;8.748;2023-03-23T07:25:58;2.97;;;2.25;;
6626;SDS011;3349;49.830;8.748;2023-03-23T07:28:25;2.40;;;2.20;;
6626;SDS011;3349;49.830;8.748;2023-03-23T07:30:52;2.50;;;2.25;;
6626;SDS011;3349;49.830;8.748;2023-03-23T07:33:19;2.25;;;2.05;;
6626;SDS011;3349;49.830;8.748;2023-03-23T07:35:47;2.33;;;1.98;;
6626;SDS011;3349;49.830;8.748;2023-03-23T07:38:14;5.07;;;2.15;;
6626;SDS011;3349;49.830;8.748;2023-03-23T07:40:41;3.60;;;1.80;;
6626;SDS011;3349;49.830;8.748;2023-03-23T07:43:09;2.47;;;1.63;;
6626;SDS011;3349;49.830;8.748;2023-03-23T07:45:35;2.40;;;1.92;;
6626;SDS011;3349;49.830;8.748;2023-03-23T07:48:02;3.05;;;1.90;;
6626;SDS011;3349;49.830;8.748;2023-03-23T07:50:30;2.17;;;1.98;;
6626;SDS011;3349;49.830;8.748;2023-03-23T07:52:59;1.70;;;1.60;;
6626;SDS011;3349;49.830;8.748;2023-03-23T07:55:26;2.05;;;1.70;;
6626;SDS011;3349;49.830;8.748;2023-03-23T07:57:53;3.90;;;1.95;;
6626;SDS011;3349;49.830;8.748;2023-03-23T08:00:22;3.90;;;1.85;;
6626;SDS011;3349;49.830;8.748;2023-03-23T08:02:50;2.35;;;1.80;;
6626;SDS011;3349;49.830;8.748;2023-03-23T08:05:18;2.67;;;1.65;;
6626;SDS011;3349;49.830;8.748;2023-03-23T08:07:47;3.28;;;1.90;;
6626;SDS011;3349;49.830;8.748;2023-03-23T08:10:16;4.13;;;1.80;;
6626;SDS011;3349;49.830;8.748;2023-03-23T08:12:43;3.53;;;2.00;;
6626;SDS011;3349;49.830;8.748;2023-03-23T08:15:11;3.30;;;2.53;;
6626;SDS011;3349;49.830;8.748;2023-03-23T08:17:39;2.83;;;2.00;;
6626;SDS011;3349;49.830;8.748;2023-03-23T08:20:07;2.50;;;1.77;;
6626;SDS011;3349;49.830;8.748;2023-03-23T08:22:38;3.88;;;2.55;;
6626;SDS011;3349;49.830;8.748;2023-03-23T08:25:06;2.33;;;2.00;;
6626;SDS011;3349;49.830;8.748;2023-03-23T08:27:37;3.00;;;2.20;;
6626;SDS011;3349;49.830;8.748;2023-03-23T08:30:08;3.67;;;2.00;;
6626;SDS011;3349;49.830;8.748;2023-03-23T08:32:36;4.07;;;2.50;;
6626;SDS011;3349;49.830;8.748;2023-03-23T08:35:03;2.17;;;1.88;;
6626;SDS011;3349;49.830;8.748;2023-03-23T08:37:32;3.08;;;1.70;;
6626;SDS011;3349;49.830;8.748;2023-03-23T08:39:58;2.55;;;1.98;;
6626;SDS011;3349;49.830;8.748;2023-03-23T08:42:28;3.75;;;1.80;;
6626;SDS011;3349;49.830;8.748;2023-03-23T08:44:56;3.13;;;1.77;;
6626;SDS011;3349;49.830;8.748;2023-03-23T08:47:24;1.92;;;1.58;;
6626;SDS011;3349;49.830;8.748;2023-03-23T08:49:50;2.65;;;2.00;;
6626;SDS011;3349;49.830;8.748;2023-03-23T08:52:18;3.10;;;1.90;;
6626;SDS011;3349;49.830;8.748;2023-03-23T08:54:46;4.18;;;2.80;;
6626;SDS011;3349;49.830;8.748;2023-03-23T08:57:13;6.03;;;3.10;;
6626;SDS011;3349;49.830;8.748;2023-03-23T08:59:40;3.35;;;2.40;;
6626;SDS011;3349;49.830;8.748;2023-03-23T09:02:09;3.97;;;2.30;;
6626;SDS011;3349;49.830;8.748;2023-03-23T09:04:37;4.32;;;2.00;;
6626;SDS011;3349;49.830;8.748;2023-03-23T09:07:07;2.95;;;1.92;;
6626;SDS011;3349;49.830;8.748;2023-03-23T09:09:34;2.42;;;1.95;;
6626;SDS011;3349;49.830;8.748;2023-03-23T09:12:01;3.17;;;2.47;;
6626;SDS011;3349;49.830;8.748;2023-03-23T09:14:27;6.13;;;2.45;;
6626;SDS011;3349;49.830;8.748;2023-03-23T09:16:54;5.72;;;2.33;;
6626;SDS011;3349;49.830;8.748;2023-03-23T09:19:22;6.25;;;2.30;;
6626;SDS011;3349;49.830;8.748;2023-03-23T09:21:49;4.18;;;1.95;;
6626;SDS011;3349;49.830;8.748;2023-03-23T09:24:16;2.80;;;2.05;;
6626;SDS011;3349;49.830;8.748;2023-03-23T09:26:44;3.40;;;2.20;;
6626;SDS011;3349;49.830;8.748;2023-03-23T09:29:10;3.13;;;2.10;;
6626;SDS011;3349;49.830;8.748;2023-03-23T09:31:37;2.60;;;2.00;;
6626;SDS011;3349;49.830;8.748;2023-03-23T09:34:05;4.47;;;2.33;;
6626;SDS011;3349;49.830;8.748;2023-03-23T09:36:36;5.32;;;2.55;;
6626;SDS011;3349;49.830;8.748;2023-03-23T09:39:04;2.33;;;1.80;;
6626;SDS011;3349;49.830;8.748;2023-03-23T09:41:43;2.67;;;1.73;;
6626;SDS011;3349;49.830;8.748;2023-03-23T09:44:30;3.05;;;2.20;;
6626;SDS011;3349;49.830;8.748;2023-03-23T09:47:04;2.50;;;2.22;;
6626;SDS011;3349;49.830;8.748;2023-03-23T09:49:38;3.38;;;2.30;;
6626;SDS011;3349;49.830;8.748;2023-03-23T09:52:11;6.13;;;2.22;;
6626;SDS011;3349;49.830;8.748;2023-03-23T09:54:40;3.55;;;2.05;;
6626;SDS011;3349;49.830;8.748;2023-03-23T09:57:11;4.03;;;1.80;;
6626;SDS011;3349;49.830;8.748;2023-03-23T09:59:44;3.70;;;3.30;;
6626;SDS011;3349;49.830;8.748;2023-03-23T10:02:16;3.10;;;2.17;;
6626;SDS011;3349;49.830;8.748;2023-03-23T10:04:46;3.22;;;2.20;;
6626;SDS011;3349;49.830;8.748;2023-03-23T10:07:16;3.97;;;1.90;;
6626;SDS011;3349;49.830;8.748;2023-03-23T10:09:45;3.80;;;1.77;;
6626;SDS011;3349;49.830;8.748;2023-03-23T10:12:18;5.45;;;2.42;;
6626;SDS011;3349;49.830;8.748;2023-03-23T10:14:54;2.10;;;1.88;;
6626;SDS011;3349;49.830;8.748;2023-03-23T10:17:28;2.55;;;1.80;;
6626;SDS011;3349;49.830;8.748;2023-03-23T10:20:00;1.65;;;1.50;;
6626;SDS011;3349;49.830;8.748;2023-03-23T10:22:46;1.73;;;1.63;;
6626;SDS011;3349;49.830;8.748;2023-03-23T10:25:18;2.55;;;1.35;;
6626;SDS011;3349;49.830;8.748;2023-03-23T10:27:49;2.40;;;1.55;;
6626;SDS011;3349;49.830;8.748;2023-03-23T10:30:24;1.63;;;1.52;;
6626;SDS011;3349;49.830;8.748;2023-03-23T10:32:56;2.25;;;1.83;;
6626;SDS011;3349;49.830;8.748;2023-03-23T10:35:25;2.22;;;1.42;;
6626;SDS011;3349;49.830;8.748;2023-03-23T10:37:56;2.10;;;1.67;;
6626;SDS011;3349;49.830;8.748;2023-03-23T10:40:27;2.28;;;1.42;;
6626;SDS011;3349;49.830;8.748;2023-03-23T10:42:56;3.78;;;1.63;;
6626;SDS011;3349;49.830;8.748;2023-03-23T10:45:24;3.53;;;1.63;;
6626;SDS011;3349;49.830;8.748;2023-03-23T10:47:53;5.13;;;1.42;;
6626;SDS011;3349;49.830;8.748;2023-03-23T10:50:23;1.88;;;1.60;;
6626;SDS011;3349;49.830;8.748;2023-03-23T10:52:52;1.98;;;1.75;;
6626;SDS011;3349;49.830;8.748;2023-03-23T10:55:24;9.13;;;7.35;;
6626;SDS011;3349;49.830;8.748;2023-03-23T10:58:03;6.47;;;3.92;;
6626;SDS011;3349;49.830;8.748;2023-03-23T11:00:32;6.00;;;4.57;;
6626;SDS011;3349;49.830;8.748;2023-03-23T11:03:20;7.65;;;5.20;;
6626;SDS011;3349;49.830;8.748;2023-03-23T11:05:52;7.50;;;6.47;;
6626;SDS011;3349;49.830;8.748;2023-03-23T11:08:22;7.88;;;5.80;;
6626;SDS011;3349;49.830;8.748;2023-03-23T11:10:53;5.22;;;4.40;;
6626;SDS011;3349;49.830;8.748;2023-03-23T11:13:21;4.82;;;3.20;;
6626;SDS011;3349;49.830;8.748;2023-03-23T11:15:49;6.43;;;5.00;;
6626;SDS011;3349;49.830;8.748;2023-03-23T11:18:18;5.13;;;3.50;;
6626;SDS011;3349;49.830;8.748;2023-03-23T11:20:48;7.78;;;5.03;;
6626;SDS011;3349;49.830;8.748;2023-03-23T11:23:18;3.63;;;3.10;;
6626;SDS011;3349;49.830;8.748;2023-03-23T11:28:41;2.92;;;2.63;;
6626;SDS011;3349;49.830;8.748;2023-03-23T11:31:09;5.45;;;4.38;;
6626;SDS011;3349;49.830;8.748;2023-03-23T11:33:37;6.35;;;4.60;;
6626;SDS011;3349;49.830;8.748;2023-03-23T11:36:06;2.40;;;2.17;;
6626;SDS011;3349;49.830;8.748;2023-03-23T11:38:34;3.22;;;2.00;;
6626;SDS011;3349;49.830;8.748;2023-03-23T11:41:08;4.35;;;3.60;;
6626;SDS011;3349;49.830;8.748;2023-03-23T11:43:43;3.38;;;3.08;;
6626;SDS011;3349;49.830;8.748;2023-03-23T11:46:13;2.03;;;1.80;;
6626;SDS011;3349;49.830;8.748;2023-03-23T11:48:47;3.05;;;2.20;;
6626;SDS011;3349;49.830;8.748;2023-03-23T11:51:20;1.80;;;1.70;;
6626;SDS011;3349;49.830;8.748;2023-03-23T11:53:56;2.15;;;1.90;;
6626;SDS011;3349;49.830;8.748;2023-03-23T11:56:29;2.45;;;1.60;;
6626;SDS011;3349;49.830;8.748;2023-03-23T11:58:59;1.45;;;1.35;;
6626;SDS011;3349;49.830;8.748;2023-03-23T12:01:35;2.30;;;1.60;;
6626;SDS011;3349;49.830;8.748;2023-03-23T12:04:16;1.55;;;1.38;;
6626;SDS011;3349;49.830;8.748;2023-03-23T12:06:54;2.60;;;1.45;;
6626;SDS011;3349;49.830;8.748;2023-03-23T12:09:31;1.50;;;1.40;;
6626;SDS011;3349;49.830;8.748;2023-03-23T12:12:10;2.00;;;1.80;;
6626;SDS011;3349;49.830;8.748;2023-03-23T12:14:46;4.70;;;2.17;;
6626;SDS011;3349;49.830;8.748;2023-03-23T12:17:20;2.38;;;1.60;;
6626;SDS011;3349;49.830;8.748;2023-03-23T12:20:03;2.75;;;1.75;;
6626;SDS011;3349;49.830;8.748;2023-03-23T12:22:44;2.15;;;1.80;;
6626;SDS011;3349;49.830;8.748;2023-03-23T12:28:21;7.47;;;2.00;;
6626;SDS011;3349;49.830;8.748;2023-03-23T12:30:59;8.48;;;2.50;;
6626;SDS011;3349;49.830;8.748;2023-03-23T12:33:34;5.38;;;1.80;;
6626;SDS011;3349;49.830;8.748;2023-03-23T12:36:17;5.85;;;2.33;;
6626;SDS011;3349;49.830;8.748;2023-03-23T12:38:54;6.03;;;2.17;;
6626;SDS011;3349;49.830;8.748;2023-03-23T12:41:31;2.15;;;1.80;;
6626;SDS011;3349;49.830;8.748;2023-03-23T12:44:06;1.58;;;1.45;;
6626;SDS011;3349;49.830;8.748;2023-03-23T12:46:42;2.95;;;1.35;;
6626;SDS011;3349;49.830;8.748;2023-03-23T12:49:21;1.95;;;1.75;;
6626;SDS011;3349;49.830;8.748;2023-03-23T12:51:55;3.70;;;1.60;;
6626;SDS011;3349;49.830;8.748;2023-03-23T12:54:27;1.70;;;1.50;;
6626;SDS011;3349;49.830;8.748;2023-03-23T12:56:59;2.53;;;1.17;;
6626;SDS011;3349;49.830;8.748;2023-03-23T12:59:33;3.83;;;1.50;;
6626;SDS011;3349;49.830;8.748;2023-03-23T13:02:12;1.63;;;1.35;;
6626;SDS011;3349;49.830;8.748;2023-03-23T13:04:45;2.08;;;1.70;;
6626;SDS011;3349;49.830;8.748;2023-03-23T13:07:17;1.88;;;1.50;;
6626;SDS011;3349;49.830;8.748;2023-03-23T13:09:50;2.42;;;1.38;;
6626;SDS011;3349;49.830;8.748;2023-03-23T13:12:21;1.60;;;1.50;;
6626;SDS011;3349;49.830;8.748;2023-03-23T13:14:53;1.70;;;1.60;;
6626;SDS011;3349;49.830;8.748;2023-03-23T13:17:32;1.98;;;1.40;;
6626;SDS011;3349;49.830;8.748;2023-03-23T13:23:02;9.07;;;5.18;;
6626;SDS011;3349;49.830;8.748;2023-03-23T13:25:40;6.07;;;3.35;;
6626;SDS011;3349;49.830;8.748;2023-03-23T13:28:15;7.72;;;5.25;;
6626;SDS011;3349;49.830;8.748;2023-03-23T13:31:00;4.85;;;3.45;;
6626;SDS011;3349;49.830;8.748;2023-03-23T13:33:30;5.28;;;3.08;;
6626;SDS011;3349;49.830;8.748;2023-03-23T13:36:02;3.15;;;1.95;;
6626;SDS011;3349;49.830;8.748;2023-03-23T13:38:33;2.45;;;2.10;;
6626;SDS011;3349;49.830;8.748;2023-03-23T13:41:05;2.72;;;1.90;;
6626;SDS011;3349;49.830;8.748;2023-03-23T13:43:35;6.35;;;2.40;;
6626;SDS011;3349;49.830;8.748;2023-03-23T13:46:08;3.95;;;2.40;;
6626;SDS011;3349;49.830;8.748;2023-03-23T13:48:41;5.25;;;2.58;;
6626;SDS011;3349;49.830;8.748;2023-03-23T13:54:03;2.58;;;2.10;;
6626;SDS011;3349;49.830;8.748;2023-03-23T13:56:35;3.15;;;2.50;;
6626;SDS011;3349;49.830;8.748;2023-03-23T13:59:07;2.75;;;2.25;;
6626;SDS011;3349;49.830;8.748;2023-03-23T14:01:40;5.78;;;2.13;;
6626;SDS011;3349;49.830;8.748;2023-03-23T14:04:10;2.10;;;1.40;;
6626;SDS011;3349;49.830;8.748;2023-03-23T14:06:39;2.40;;;2.20;;
6626;SDS011;3349;49.830;8.748;2023-03-23T14:09:07;3.90;;;1.70;;
6626;SDS011;3349;49.830;8.748;2023-03-23T14:11:45;1.40;;;1.30;;
6626;SDS011;3349;49.830;8.748;2023-03-23T14:14:20;3.28;;;1.20;;
6626;SDS011;3349;49.830;8.748;2023-03-23T14:16:52;1.77;;;1.23;;
6626;SDS011;3349;49.830;8.748;2023-03-23T14:19:21;2.03;;;1.27;;
6626;SDS011;3349;49.830;8.748;2023-03-23T14:21:50;1.20;;;1.10;;
6626;SDS011;3349;49.830;8.748;2023-03-23T14:24:19;1.75;;;1.40;;
6626;SDS011;3349;49.830;8.748;2023-03-23T14:26:49;1.40;;;1.30;;
6626;SDS011;3349;49.830;8.748;2023-03-23T14:29:18;1.90;;;1.73;;
6626;SDS011;3349;49.830;8.748;2023-03-23T14:31:48;1.40;;;1.30;;
6626;SDS011;3349;49.830;8.748;2023-03-23T14:34:20;1.73;;;1.42;;
6626;SDS011;3349;49.830;8.748;2023-03-23T14:36:49;2.17;;;1.65;;
6626;SDS011;3349;49.830;8.748;2023-03-23T14:39:19;1.60;;;1.50;;
6626;SDS011;3349;49.830;8.748;2023-03-23T14:41:49;2.33;;;2.10;;
6626;SDS011;3349;49.830;8.748;2023-03-23T14:44:17;3.53;;;1.38;;
6626;SDS011;3349;49.830;8.748;2023-03-23T14:46:48;1.58;;;1.20;;
6626;SDS011;3349;49.830;8.748;2023-03-23T14:49:16;4.47;;;3.47;;
6626;SDS011;3349;49.830;8.748;2023-03-23T14:51:48;3.75;;;2.08;;
6626;SDS011;3349;49.830;8.748;2023-03-23T14:54:18;8.32;;;4.90;;
6626;SDS011;3349;49.830;8.748;2023-03-23T14:56:48;3.22;;;2.45;;
6626;SDS011;3349;49.830;8.748;2023-03-23T14:59:15;3.33;;;2.25;;
6626;SDS011;3349;49.830;8.748;2023-03-23T15:01:42;2.58;;;2.03;;
6626;SDS011;3349;49.830;8.748;2023-03-23T15:04:12;3.45;;;2.05;;
6626;SDS011;3349;49.830;8.748;2023-03-23T15:06:42;2.22;;;1.83;;
6626;SDS011;3349;49.830;8.748;2023-03-23T15:09:15;5.35;;;2.78;;
6626;SDS011;3349;49.830;8.748;2023-03-23T15:11:49;5.15;;;2.80;;
6626;SDS011;3349;49.830;8.748;2023-03-23T15:14:20;2.50;;;1.88;;
6626;SDS011;3349;49.830;8.748;2023-03-23T15:16:49;1.63;;;1.52;;
6626;SDS011;3349;49.830;8.748;2023-03-23T15:19:18;1.63;;;1.50;;
6626;SDS011;3349;49.830;8.748;2023-03-23T15:21:48;2.60;;;2.10;;
6626;SDS011;3349;49.830;8.748;2023-03-23T15:24:24;5.00;;;4.50;;
6626;SDS011;3349;49.830;8.748;2023-03-23T15:26:53;2.80;;;2.30;;
6626;SDS011;3349;49.830;8.748;2023-03-23T15:29:20;3.20;;;2.90;;
6626;SDS011;3349;49.830;8.748;2023-03-23T15:31:49;3.35;;;3.05;;
6626;SDS011;3349;49.830;8.748;2023-03-23T15:34:20;2.88;;;2.60;;
6626;SDS011;3349;49.830;8.748;2023-03-23T15:36:55;3.45;;;1.85;;
6626;SDS011;3349;49.830;8.748;2023-03-23T15:39:25;2.50;;;2.20;;
6626;SDS011;3349;49.830;8.748;2023-03-23T15:41:52;2.30;;;2.10;;
6626;SDS011;3349;49.830;8.748;2023-03-23T15:44:21;2.72;;;2.30;;
6626;SDS011;3349;49.830;8.748;2023-03-23T15:46:53;3.00;;;2.50;;
6626;SDS011;3349;49.830;8.748;2023-03-23T15:49:28;3.45;;;2.30;;
6626;SDS011;3349;49.830;8.748;2023-03-23T15:51:55;5.03;;;1.80;;